sensor_id;sensor_type;location;lat;lon;timestamp;temperature;humidity
28374;DHT22;15616;40.148;-102.718;2023-06-04T00:01:06;22.90;42.80
28374;DHT22;15616;40.148;-102.718;2023-06-04T00:03:33;22.90;42.80
28374;DHT22;15616;40.148;-102.718;2023-06-04T00:05:59;22.90;42.80
28374;DHT22;15616;40.148;-102.718;2023-06-04T00:08:25;22.90;42.70
28374;DHT22;15616;40.148;-102.718;2023-06-04T00:10:50;22.90;42.80
28374;DHT22;15616;40.148;-102.718;2023-06-04T00:13:16;22.90;42.80
28374;DHT22;15616;40.148;-102.718;2023-06-04T00:15:42;22.90;42.90
28374;DHT22;15616;40.148;-102.718;2023-06-04T00:18:08;22.80;42.90
28374;DHT22;15616;40.148;-102.718;2023-06-04T00:20:34;22.90;43.00
28374;DHT22;15616;40.148;-102.718;2023-06-04T00:22:59;22.80;42.90
28374;DHT22;15616;40.148;-102.718;2023-06-04T00:25:25;22.80;42.90
28374;DHT22;15616;40.148;-102.718;2023-06-04T00:27:51;22.80;43.00
28374;DHT22;15616;40.148;-102.718;2023-06-04T00:30:17;22.80;43.00
28374;DHT22;15616;40.148;-102.718;2023-06-04T00:32:42;22.80;43.00
28374;DHT22;15616;40.148;-102.718;2023-06-04T00:35:08;22.80;43.10
28374;DHT22;15616;40.148;-102.718;2023-06-04T00:37:34;22.80;43.10
28374;DHT22;15616;40.148;-102.718;2023-06-04T00:40:00;22.80;43.00
28374;DHT22;15616;40.148;-102.718;2023-06-04T00:42:26;22.80;43.10
28374;DHT22;15616;40.148;-102.718;2023-06-04T00:44:52;22.80;43.10
28374;DHT22;15616;40.148;-102.718;2023-06-04T00:47:18;22.80;43.10
28374;DHT22;15616;40.148;-102.718;2023-06-04T00:49:45;22.80;43.20
28374;DHT22;15616;40.148;-102.718;2023-06-04T00:52:14;22.80;43.20
28374;DHT22;15616;40.148;-102.718;2023-06-04T00:54:40;22.80;43.20
28374;DHT22;15616;40.148;-102.718;2023-06-04T00:57:09;22.80;43.20
28374;DHT22;15616;40.148;-102.718;2023-06-04T00:59:35;22.80;43.20
28374;DHT22;15616;40.148;-102.718;2023-06-04T01:02:11;22.80;43.30
28374;DHT22;15616;40.148;-102.718;2023-06-04T01:04:40;22.80;43.30
28374;DHT22;15616;40.148;-102.718;2023-06-04T01:07:08;22.80;43.30
28374;DHT22;15616;40.148;-102.718;2023-06-04T01:09:35;22.70;43.30
28374;DHT22;15616;40.148;-102.718;2023-06-04T01:12:05;22.70;43.30
28374;DHT22;15616;40.148;-102.718;2023-06-04T01:14:31;22.70;43.30
28374;DHT22;15616;40.148;-102.718;2023-06-04T01:17:02;22.70;43.40
28374;DHT22;15616;40.148;-102.718;2023-06-04T01:22:02;22.70;43.40
28374;DHT22;15616;40.148;-102.718;2023-06-04T01:24:28;22.70;43.40
28374;DHT22;15616;40.148;-102.718;2023-06-04T01:26:59;22.70;43.40
28374;DHT22;15616;40.148;-102.718;2023-06-04T01:29:26;22.70;43.40
28374;DHT22;15616;40.148;-102.718;2023-06-04T01:31:55;22.70;43.40
28374;DHT22;15616;40.148;-102.718;2023-06-04T01:34:22;22.70;43.40
28374;DHT22;15616;40.148;-102.718;2023-06-04T01:36:48;22.70;43.40
28374;DHT22;15616;40.148;-102.718;2023-06-04T01:39:14;22.70;43.50
28374;DHT22;15616;40.148;-102.718;2023-06-04T01:41:40;22.70;43.50
28374;DHT22;15616;40.148;-102.718;2023-06-04T01:44:05;22.70;43.50
28374;DHT22;15616;40.148;-102.718;2023-06-04T01:46:31;22.70;43.50
28374;DHT22;15616;40.148;-102.718;2023-06-04T01:48:57;22.70;43.50
28374;DHT22;15616;40.148;-102.718;2023-06-04T01:51:22;22.70;43.50
28374;DHT22;15616;40.148;-102.718;2023-06-04T01:53:48;22.70;43.50
28374;DHT22;15616;40.148;-102.718;2023-06-04T01:56:14;22.70;43.60
28374;DHT22;15616;40.148;-102.718;2023-06-04T01:58:39;22.60;43.50
28374;DHT22;15616;40.148;-102.718;2023-06-04T02:01:05;22.70;43.60
28374;DHT22;15616;40.148;-102.718;2023-06-04T02:03:32;22.70;43.60
28374;DHT22;15616;40.148;-102.718;2023-06-04T02:06:05;22.70;44.30
28374;DHT22;15616;40.148;-102.718;2023-06-04T02:08:34;22.60;43.60
28374;DHT22;15616;40.148;-102.718;2023-06-04T02:11:00;22.60;43.60
28374;DHT22;15616;40.148;-102.718;2023-06-04T02:13:26;22.60;43.60
28374;DHT22;15616;40.148;-102.718;2023-06-04T02:15:52;22.60;43.60
28374;DHT22;15616;40.148;-102.718;2023-06-04T02:18:18;22.60;43.60
28374;DHT22;15616;40.148;-102.718;2023-06-04T02:20:46;22.60;43.60
28374;DHT22;15616;40.148;-102.718;2023-06-04T02:23:13;22.60;43.60
28374;DHT22;15616;40.148;-102.718;2023-06-04T02:25:39;22.60;43.60
28374;DHT22;15616;40.148;-102.718;2023-06-04T02:28:05;22.60;43.60
28374;DHT22;15616;40.148;-102.718;2023-06-04T02:30:31;22.60;43.60
28374;DHT22;15616;40.148;-102.718;2023-06-04T02:32:57;22.60;43.70
28374;DHT22;15616;40.148;-102.718;2023-06-04T02:35:28;22.60;43.70
28374;DHT22;15616;40.148;-102.718;2023-06-04T02:37:54;22.60;43.70
28374;DHT22;15616;40.148;-102.718;2023-06-04T02:40:21;22.60;43.70
28374;DHT22;15616;40.148;-102.718;2023-06-04T02:42:47;22.60;43.70
28374;DHT22;15616;40.148;-102.718;2023-06-04T02:45:13;22.60;43.70
28374;DHT22;15616;40.148;-102.718;2023-06-04T02:47:38;22.60;43.70
28374;DHT22;15616;40.148;-102.718;2023-06-04T02:50:04;22.60;43.70
28374;DHT22;15616;40.148;-102.718;2023-06-04T02:52:30;22.60;43.70
28374;DHT22;15616;40.148;-102.718;2023-06-04T02:54:58;22.60;43.70
28374;DHT22;15616;40.148;-102.718;2023-06-04T02:57:24;22.60;43.80
28374;DHT22;15616;40.148;-102.718;2023-06-04T02:59:50;22.50;43.70
28374;DHT22;15616;40.148;-102.718;2023-06-04T03:02:17;22.60;43.80
28374;DHT22;15616;40.148;-102.718;2023-06-04T03:04:42;22.60;43.80
28374;DHT22;15616;40.148;-102.718;2023-06-04T03:07:09;22.50;43.70
28374;DHT22;15616;40.148;-102.718;2023-06-04T03:09:37;22.50;43.80
28374;DHT22;15616;40.148;-102.718;2023-06-04T03:12:03;22.50;43.80
28374;DHT22;15616;40.148;-102.718;2023-06-04T03:14:29;22.50;43.80
28374;DHT22;15616;40.148;-102.718;2023-06-04T03:16:58;22.50;43.80
28374;DHT22;15616;40.148;-102.718;2023-06-04T03:19:26;22.50;43.80
28374;DHT22;15616;40.148;-102.718;2023-06-04T03:21:53;22.50;43.80
28374;DHT22;15616;40.148;-102.718;2023-06-04T03:24:19;22.50;43.80
28374;DHT22;15616;40.148;-102.718;2023-06-04T03:26:44;22.50;43.70
28374;DHT22;15616;40.148;-102.718;2023-06-04T03:29:10;22.50;43.80
28374;DHT22;15616;40.148;-102.718;2023-06-04T03:31:37;22.50;43.80
28374;DHT22;15616;40.148;-102.718;2023-06-04T03:34:03;22.50;43.80
28374;DHT22;15616;40.148;-102.718;2023-06-04T03:36:29;22.50;43.90
28374;DHT22;15616;40.148;-102.718;2023-06-04T03:39:03;22.50;43.90
28374;DHT22;15616;40.148;-102.718;2023-06-04T03:41:30;22.50;43.90
28374;DHT22;15616;40.148;-102.718;2023-06-04T03:43:56;22.50;43.80
28374;DHT22;15616;40.148;-102.718;2023-06-04T03:46:21;22.50;43.80
28374;DHT22;15616;40.148;-102.718;2023-06-04T03:48:50;22.50;43.80
28374;DHT22;15616;40.148;-102.718;2023-06-04T03:51:16;22.50;43.80
28374;DHT22;15616;40.148;-102.718;2023-06-04T03:53:41;22.50;43.90
28374;DHT22;15616;40.148;-102.718;2023-06-04T03:56:07;22.50;43.90
28374;DHT22;15616;40.148;-102.718;2023-06-04T03:58:34;22.50;44.00
28374;DHT22;15616;40.148;-102.718;2023-06-04T04:01:00;22.50;44.00
28374;DHT22;15616;40.148;-102.718;2023-06-04T04:03:26;22.50;44.00
28374;DHT22;15616;40.148;-102.718;2023-06-04T04:05:57;22.50;44.00
28374;DHT22;15616;40.148;-102.718;2023-06-04T04:08:23;22.50;44.00
28374;DHT22;15616;40.148;-102.718;2023-06-04T04:10:49;22.50;43.90
28374;DHT22;15616;40.148;-102.718;2023-06-04T04:13:14;22.50;43.90
28374;DHT22;15616;40.148;-102.718;2023-06-04T04:15:40;22.50;43.90
28374;DHT22;15616;40.148;-102.718;2023-06-04T04:18:06;22.50;43.80
28374;DHT22;15616;40.148;-102.718;2023-06-04T04:20:33;22.50;43.80
28374;DHT22;15616;40.148;-102.718;2023-06-04T04:23:00;22.60;43.80
28374;DHT22;15616;40.148;-102.718;2023-06-04T04:25:26;22.60;43.80
28374;DHT22;15616;40.148;-102.718;2023-06-04T04:27:52;22.60;43.80
28374;DHT22;15616;40.148;-102.718;2023-06-04T04:30:18;22.60;43.80
28374;DHT22;15616;40.148;-102.718;2023-06-04T04:32:44;22.60;43.80
28374;DHT22;15616;40.148;-102.718;2023-06-04T04:35:14;22.60;43.80
28374;DHT22;15616;40.148;-102.718;2023-06-04T04:37:40;22.60;43.80
28374;DHT22;15616;40.148;-102.718;2023-06-04T04:40:08;22.60;43.80
28374;DHT22;15616;40.148;-102.718;2023-06-04T04:42:37;22.60;43.80
28374;DHT22;15616;40.148;-102.718;2023-06-04T04:45:03;22.60;43.80
28374;DHT22;15616;40.148;-102.718;2023-06-04T04:47:29;22.60;43.90
28374;DHT22;15616;40.148;-102.718;2023-06-04T04:49:55;22.60;43.80
28374;DHT22;15616;40.148;-102.718;2023-06-04T04:52:21;22.50;43.80
28374;DHT22;15616;40.148;-102.718;2023-06-04T04:54:46;22.60;43.90
28374;DHT22;15616;40.148;-102.718;2023-06-04T04:57:12;22.60;43.90
28374;DHT22;15616;40.148;-102.718;2023-06-04T04:59:38;22.60;43.90
28374;DHT22;15616;40.148;-102.718;2023-06-04T05:02:03;22.60;43.80
28374;DHT22;15616;40.148;-102.718;2023-06-04T05:04:29;22.60;43.90
28374;DHT22;15616;40.148;-102.718;2023-06-04T05:06:55;22.60;43.90
28374;DHT22;15616;40.148;-102.718;2023-06-04T05:09:20;22.60;43.80
28374;DHT22;15616;40.148;-102.718;2023-06-04T05:11:46;22.60;44.50
28374;DHT22;15616;40.148;-102.718;2023-06-04T05:14:12;22.60;43.80
28374;DHT22;15616;40.148;-102.718;2023-06-04T05:16:38;22.60;43.90
28374;DHT22;15616;40.148;-102.718;2023-06-04T05:19:06;22.60;43.90
28374;DHT22;15616;40.148;-102.718;2023-06-04T05:21:31;22.60;43.90
28374;DHT22;15616;40.148;-102.718;2023-06-04T05:23:57;22.60;43.90
28374;DHT22;15616;40.148;-102.718;2023-06-04T05:26:23;22.50;43.90
28374;DHT22;15616;40.148;-102.718;2023-06-04T05:28:51;22.50;43.90
28374;DHT22;15616;40.148;-102.718;2023-06-04T05:31:17;22.60;43.90
28374;DHT22;15616;40.148;-102.718;2023-06-04T05:33:43;22.50;43.90
28374;DHT22;15616;40.148;-102.718;2023-06-04T05:36:09;22.60;43.90
28374;DHT22;15616;40.148;-102.718;2023-06-04T05:38:35;22.60;43.90
28374;DHT22;15616;40.148;-102.718;2023-06-04T05:41:01;22.60;43.90
28374;DHT22;15616;40.148;-102.718;2023-06-04T05:43:27;22.60;43.90
28374;DHT22;15616;40.148;-102.718;2023-06-04T05:45:53;22.60;43.90
28374;DHT22;15616;40.148;-102.718;2023-06-04T05:48:18;22.60;43.90
28374;DHT22;15616;40.148;-102.718;2023-06-04T05:50:44;22.50;43.90
28374;DHT22;15616;40.148;-102.718;2023-06-04T05:53:10;22.60;43.90
28374;DHT22;15616;40.148;-102.718;2023-06-04T05:55:36;22.60;43.90
28374;DHT22;15616;40.148;-102.718;2023-06-04T05:58:01;22.50;43.90
28374;DHT22;15616;40.148;-102.718;2023-06-04T06:00:27;22.60;43.90
28374;DHT22;15616;40.148;-102.718;2023-06-04T06:02:53;22.60;43.90
28374;DHT22;15616;40.148;-102.718;2023-06-04T06:05:19;22.60;43.80
28374;DHT22;15616;40.148;-102.718;2023-06-04T06:07:45;22.60;43.80
28374;DHT22;15616;40.148;-102.718;2023-06-04T06:10:12;22.60;43.80
28374;DHT22;15616;40.148;-102.718;2023-06-04T06:12:38;22.60;43.80
28374;DHT22;15616;40.148;-102.718;2023-06-04T06:15:04;22.60;43.80
28374;DHT22;15616;40.148;-102.718;2023-06-04T06:17:31;22.60;43.70
28374;DHT22;15616;40.148;-102.718;2023-06-04T06:19:58;22.60;43.70
28374;DHT22;15616;40.148;-102.718;2023-06-04T06:22:24;22.60;43.70
28374;DHT22;15616;40.148;-102.718;2023-06-04T06:24:50;22.60;43.60
28374;DHT22;15616;40.148;-102.718;2023-06-04T06:27:16;22.60;43.70
28374;DHT22;15616;40.148;-102.718;2023-06-04T06:29:42;22.60;43.70
28374;DHT22;15616;40.148;-102.718;2023-06-04T06:32:09;22.60;43.70
28374;DHT22;15616;40.148;-102.718;2023-06-04T06:34:35;22.60;43.70
28374;DHT22;15616;40.148;-102.718;2023-06-04T06:37:02;22.60;43.70
28374;DHT22;15616;40.148;-102.718;2023-06-04T06:39:28;22.60;43.70
28374;DHT22;15616;40.148;-102.718;2023-06-04T06:41:54;22.60;43.60
28374;DHT22;15616;40.148;-102.718;2023-06-04T06:44:20;22.60;43.70
28374;DHT22;15616;40.148;-102.718;2023-06-04T06:46:46;22.60;43.60
28374;DHT22;15616;40.148;-102.718;2023-06-04T06:49:14;22.60;43.60
28374;DHT22;15616;40.148;-102.718;2023-06-04T06:51:40;22.70;43.70
28374;DHT22;15616;40.148;-102.718;2023-06-04T06:54:08;22.70;43.70
28374;DHT22;15616;40.148;-102.718;2023-06-04T06:56:33;22.70;43.70
28374;DHT22;15616;40.148;-102.718;2023-06-04T06:58:59;22.60;43.70
28374;DHT22;15616;40.148;-102.718;2023-06-04T07:01:25;22.70;43.70
28374;DHT22;15616;40.148;-102.718;2023-06-04T07:03:52;22.70;43.70
28374;DHT22;15616;40.148;-102.718;2023-06-04T07:06:17;22.60;43.70
28374;DHT22;15616;40.148;-102.718;2023-06-04T07:08:43;22.70;43.80
28374;DHT22;15616;40.148;-102.718;2023-06-04T07:11:09;22.70;43.80
28374;DHT22;15616;40.148;-102.718;2023-06-04T07:13:38;22.70;43.70
28374;DHT22;15616;40.148;-102.718;2023-06-04T07:16:04;22.70;43.70
28374;DHT22;15616;40.148;-102.718;2023-06-04T07:18:30;22.70;43.70
28374;DHT22;15616;40.148;-102.718;2023-06-04T07:20:55;22.70;43.70
28374;DHT22;15616;40.148;-102.718;2023-06-04T07:23:21;22.70;43.70
28374;DHT22;15616;40.148;-102.718;2023-06-04T07:25:47;22.70;43.70
28374;DHT22;15616;40.148;-102.718;2023-06-04T07:28:12;22.70;43.70
28374;DHT22;15616;40.148;-102.718;2023-06-04T07:30:38;22.70;43.70
28374;DHT22;15616;40.148;-102.718;2023-06-04T07:33:04;22.70;43.70
28374;DHT22;15616;40.148;-102.718;2023-06-04T07:35:29;22.70;43.70
28374;DHT22;15616;40.148;-102.718;2023-06-04T07:37:55;22.70;43.70
28374;DHT22;15616;40.148;-102.718;2023-06-04T07:40:21;22.70;43.70
28374;DHT22;15616;40.148;-102.718;2023-06-04T07:42:47;22.70;43.70
28374;DHT22;15616;40.148;-102.718;2023-06-04T07:45:14;22.70;43.70
28374;DHT22;15616;40.148;-102.718;2023-06-04T07:47:39;22.80;43.70
28374;DHT22;15616;40.148;-102.718;2023-06-04T07:50:05;22.80;43.70
28374;DHT22;15616;40.148;-102.718;2023-06-04T07:52:31;22.80;43.70
28374;DHT22;15616;40.148;-102.718;2023-06-04T07:54:57;22.70;43.70
28374;DHT22;15616;40.148;-102.718;2023-06-04T07:57:23;22.80;43.70
28374;DHT22;15616;40.148;-102.718;2023-06-04T07:59:49;22.70;43.70
28374;DHT22;15616;40.148;-102.718;2023-06-04T08:02:15;22.80;43.70
28374;DHT22;15616;40.148;-102.718;2023-06-04T08:04:41;22.70;43.70
28374;DHT22;15616;40.148;-102.718;2023-06-04T08:07:06;22.80;43.70
28374;DHT22;15616;40.148;-102.718;2023-06-04T08:09:32;22.80;43.70
28374;DHT22;15616;40.148;-102.718;2023-06-04T08:11:59;22.80;43.70
28374;DHT22;15616;40.148;-102.718;2023-06-04T08:14:24;22.80;43.70
28374;DHT22;15616;40.148;-102.718;2023-06-04T08:16:55;22.80;43.60
28374;DHT22;15616;40.148;-102.718;2023-06-04T08:19:21;22.80;43.60
28374;DHT22;15616;40.148;-102.718;2023-06-04T08:21:47;22.80;43.60
28374;DHT22;15616;40.148;-102.718;2023-06-04T08:24:13;22.80;43.60
28374;DHT22;15616;40.148;-102.718;2023-06-04T08:26:38;22.80;43.60
28374;DHT22;15616;40.148;-102.718;2023-06-04T08:29:05;22.90;43.60
28374;DHT22;15616;40.148;-102.718;2023-06-04T08:31:31;22.90;43.60
28374;DHT22;15616;40.148;-102.718;2023-06-04T08:33:56;22.90;43.60
28374;DHT22;15616;40.148;-102.718;2023-06-04T08:36:22;22.90;43.60
28374;DHT22;15616;40.148;-102.718;2023-06-04T08:38:48;22.90;43.60
28374;DHT22;15616;40.148;-102.718;2023-06-04T08:41:28;22.90;43.50
28374;DHT22;15616;40.148;-102.718;2023-06-04T08:43:57;22.90;43.50
28374;DHT22;15616;40.148;-102.718;2023-06-04T08:46:23;22.90;43.60
28374;DHT22;15616;40.148;-102.718;2023-06-04T08:48:49;23.00;43.60
28374;DHT22;15616;40.148;-102.718;2023-06-04T08:51:15;22.90;43.50
28374;DHT22;15616;40.148;-102.718;2023-06-04T08:53:42;23.00;43.60
28374;DHT22;15616;40.148;-102.718;2023-06-04T08:56:08;23.00;43.60
28374;DHT22;15616;40.148;-102.718;2023-06-04T08:58:35;23.00;43.60
28374;DHT22;15616;40.148;-102.718;2023-06-04T09:01:01;23.00;43.60
28374;DHT22;15616;40.148;-102.718;2023-06-04T09:03:28;23.00;43.60
28374;DHT22;15616;40.148;-102.718;2023-06-04T09:05:56;23.00;43.60
28374;DHT22;15616;40.148;-102.718;2023-06-04T09:08:22;23.00;43.60
28374;DHT22;15616;40.148;-102.718;2023-06-04T09:10:50;23.00;43.50
28374;DHT22;15616;40.148;-102.718;2023-06-04T09:13:17;23.00;43.50
28374;DHT22;15616;40.148;-102.718;2023-06-04T09:15:44;23.10;43.50
28374;DHT22;15616;40.148;-102.718;2023-06-04T09:18:11;23.00;43.40
28374;DHT22;15616;40.148;-102.718;2023-06-04T09:20:37;23.10;43.50
28374;DHT22;15616;40.148;-102.718;2023-06-04T09:23:12;23.10;43.50
28374;DHT22;15616;40.148;-102.718;2023-06-04T09:25:41;23.10;43.50
28374;DHT22;15616;40.148;-102.718;2023-06-04T09:28:07;23.10;43.50
28374;DHT22;15616;40.148;-102.718;2023-06-04T09:30:33;23.10;43.50
28374;DHT22;15616;40.148;-102.718;2023-06-04T09:33:07;23.10;43.50
28374;DHT22;15616;40.148;-102.718;2023-06-04T09:35:33;23.10;43.50
28374;DHT22;15616;40.148;-102.718;2023-06-04T09:37:59;23.10;43.50
28374;DHT22;15616;40.148;-102.718;2023-06-04T09:40:34;23.10;43.50
28374;DHT22;15616;40.148;-102.718;2023-06-04T09:43:00;23.10;43.50
28374;DHT22;15616;40.148;-102.718;2023-06-04T09:45:32;23.10;43.50
28374;DHT22;15616;40.148;-102.718;2023-06-04T09:47:59;23.10;43.40
28374;DHT22;15616;40.148;-102.718;2023-06-04T09:50:28;23.10;43.40
28374;DHT22;15616;40.148;-102.718;2023-06-04T09:52:55;23.10;43.40
28374;DHT22;15616;40.148;-102.718;2023-06-04T09:55:22;23.10;43.30
28374;DHT22;15616;40.148;-102.718;2023-06-04T09:57:51;23.20;43.30
28374;DHT22;15616;40.148;-102.718;2023-06-04T10:00:17;23.10;43.30
28374;DHT22;15616;40.148;-102.718;2023-06-04T10:02:44;23.20;43.30
28374;DHT22;15616;40.148;-102.718;2023-06-04T10:05:11;23.10;43.30
28374;DHT22;15616;40.148;-102.718;2023-06-04T10:07:41;23.10;43.10
28374;DHT22;15616;40.148;-102.718;2023-06-04T10:10:08;23.10;43.10
28374;DHT22;15616;40.148;-102.718;2023-06-04T10:12:36;23.20;43.10
28374;DHT22;15616;40.148;-102.718;2023-06-04T10:15:05;23.10;43.10
28374;DHT22;15616;40.148;-102.718;2023-06-04T10:17:31;23.20;43.20
28374;DHT22;15616;40.148;-102.718;2023-06-04T10:19:58;23.20;43.10
28374;DHT22;15616;40.148;-102.718;2023-06-04T10:22:24;23.20;43.10
28374;DHT22;15616;40.148;-102.718;2023-06-04T10:24:50;23.20;43.10
28374;DHT22;15616;40.148;-102.718;2023-06-04T10:27:16;23.20;43.10
28374;DHT22;15616;40.148;-102.718;2023-06-04T10:29:43;23.20;43.10
28374;DHT22;15616;40.148;-102.718;2023-06-04T10:32:08;23.20;43.00
28374;DHT22;15616;40.148;-102.718;2023-06-04T10:34:34;23.20;43.00
28374;DHT22;15616;40.148;-102.718;2023-06-04T10:37:01;23.20;42.90
28374;DHT22;15616;40.148;-102.718;2023-06-04T10:39:28;23.20;42.90
28374;DHT22;15616;40.148;-102.718;2023-06-04T10:41:58;23.20;42.90
28374;DHT22;15616;40.148;-102.718;2023-06-04T10:44:24;23.20;42.90
28374;DHT22;15616;40.148;-102.718;2023-06-04T10:46:50;23.20;43.00
28374;DHT22;15616;40.148;-102.718;2023-06-04T10:49:25;23.30;43.00
28374;DHT22;15616;40.148;-102.718;2023-06-04T10:51:51;23.20;42.80
28374;DHT22;15616;40.148;-102.718;2023-06-04T10:54:23;23.30;42.80
28374;DHT22;15616;40.148;-102.718;2023-06-04T10:56:52;23.30;42.80
28374;DHT22;15616;40.148;-102.718;2023-06-04T10:59:20;23.30;42.70
28374;DHT22;15616;40.148;-102.718;2023-06-04T11:01:46;23.40;42.70
28374;DHT22;15616;40.148;-102.718;2023-06-04T11:04:22;23.40;42.70
28374;DHT22;15616;40.148;-102.718;2023-06-04T11:06:48;23.40;42.70
28374;DHT22;15616;40.148;-102.718;2023-06-04T11:09:14;23.40;42.70
28374;DHT22;15616;40.148;-102.718;2023-06-04T11:11:44;23.40;42.60
28374;DHT22;15616;40.148;-102.718;2023-06-04T11:14:10;23.40;42.60
28374;DHT22;15616;40.148;-102.718;2023-06-04T11:16:38;23.50;42.60
28374;DHT22;15616;40.148;-102.718;2023-06-04T11:19:04;23.50;42.50
28374;DHT22;15616;40.148;-102.718;2023-06-04T11:21:30;23.50;42.50
28374;DHT22;15616;40.148;-102.718;2023-06-04T11:23:59;23.50;42.50
28374;DHT22;15616;40.148;-102.718;2023-06-04T11:26:34;23.50;42.50
28374;DHT22;15616;40.148;-102.718;2023-06-04T11:29:00;23.50;42.60
28374;DHT22;15616;40.148;-102.718;2023-06-04T11:31:26;23.50;42.50
28374;DHT22;15616;40.148;-102.718;2023-06-04T11:33:52;23.50;42.50
28374;DHT22;15616;40.148;-102.718;2023-06-04T11:36:28;23.50;42.50
28374;DHT22;15616;40.148;-102.718;2023-06-04T11:38:57;23.50;42.50
28374;DHT22;15616;40.148;-102.718;2023-06-04T11:41:27;23.60;42.60
28374;DHT22;15616;40.148;-102.718;2023-06-04T11:43:53;23.60;42.60
28374;DHT22;15616;40.148;-102.718;2023-06-04T11:46:19;23.60;42.50
28374;DHT22;15616;40.148;-102.718;2023-06-04T11:48:45;23.60;42.50
28374;DHT22;15616;40.148;-102.718;2023-06-04T11:51:10;23.60;42.60
28374;DHT22;15616;40.148;-102.718;2023-06-04T11:53:37;23.60;42.50
28374;DHT22;15616;40.148;-102.718;2023-06-04T11:56:04;23.60;42.40
28374;DHT22;15616;40.148;-102.718;2023-06-04T11:58:30;23.60;42.40
28374;DHT22;15616;40.148;-102.718;2023-06-04T12:00:56;23.60;42.40
28374;DHT22;15616;40.148;-102.718;2023-06-04T12:03:35;23.60;42.40
28374;DHT22;15616;40.148;-102.718;2023-06-04T12:06:11;23.60;42.50
28374;DHT22;15616;40.148;-102.718;2023-06-04T12:08:50;23.60;42.40
28374;DHT22;15616;40.148;-102.718;2023-06-04T12:11:31;23.60;42.40
28374;DHT22;15616;40.148;-102.718;2023-06-04T12:14:03;23.60;42.40
28374;DHT22;15616;40.148;-102.718;2023-06-04T12:16:29;23.60;42.40
28374;DHT22;15616;40.148;-102.718;2023-06-04T12:22:01;23.70;42.40
28374;DHT22;15616;40.148;-102.718;2023-06-04T12:24:27;23.70;42.40
28374;DHT22;15616;40.148;-102.718;2023-06-04T12:27:00;23.70;42.40
28374;DHT22;15616;40.148;-102.718;2023-06-04T12:29:26;23.70;42.40
28374;DHT22;15616;40.148;-102.718;2023-06-04T12:32:00;23.70;42.30
28374;DHT22;15616;40.148;-102.718;2023-06-04T12:34:26;23.70;42.30
28374;DHT22;15616;40.148;-102.718;2023-06-04T12:36:52;23.70;42.30
28374;DHT22;15616;40.148;-102.718;2023-06-04T12:39:18;23.70;42.30
28374;DHT22;15616;40.148;-102.718;2023-06-04T12:41:46;23.70;42.30
28374;DHT22;15616;40.148;-102.718;2023-06-04T12:44:12;23.70;42.20
28374;DHT22;15616;40.148;-102.718;2023-06-04T12:46:37;23.80;42.20
28374;DHT22;15616;40.148;-102.718;2023-06-04T12:49:03;23.70;42.20
28374;DHT22;15616;40.148;-102.718;2023-06-04T12:51:29;23.80;42.30
28374;DHT22;15616;40.148;-102.718;2023-06-04T12:53:54;23.80;42.20
28374;DHT22;15616;40.148;-102.718;2023-06-04T12:56:20;23.80;42.20
28374;DHT22;15616;40.148;-102.718;2023-06-04T12:58:47;23.80;42.30
28374;DHT22;15616;40.148;-102.718;2023-06-04T13:01:13;23.70;42.20
28374;DHT22;15616;40.148;-102.718;2023-06-04T13:03:39;23.80;42.20
28374;DHT22;15616;40.148;-102.718;2023-06-04T13:06:05;23.80;42.20
28374;DHT22;15616;40.148;-102.718;2023-06-04T13:08:31;23.80;42.10
28374;DHT22;15616;40.148;-102.718;2023-06-04T13:10:57;23.80;42.10
28374;DHT22;15616;40.148;-102.718;2023-06-04T13:13:23;23.80;42.10
28374;DHT22;15616;40.148;-102.718;2023-06-04T13:15:48;23.80;42.10
28374;DHT22;15616;40.148;-102.718;2023-06-04T13:18:14;23.80;42.10
28374;DHT22;15616;40.148;-102.718;2023-06-04T13:20:40;23.80;42.10
28374;DHT22;15616;40.148;-102.718;2023-06-04T13:23:06;23.80;42.10
28374;DHT22;15616;40.148;-102.718;2023-06-04T13:25:32;23.80;42.20
28374;DHT22;15616;40.148;-102.718;2023-06-04T13:28:02;23.80;42.10
28374;DHT22;15616;40.148;-102.718;2023-06-04T13:30:28;23.80;42.10
28374;DHT22;15616;40.148;-102.718;2023-06-04T13:32:54;23.90;42.20
28374;DHT22;15616;40.148;-102.718;2023-06-04T13:35:20;23.90;42.10
28374;DHT22;15616;40.148;-102.718;2023-06-04T13:37:46;23.90;42.10
28374;DHT22;15616;40.148;-102.718;2023-06-04T13:40:12;23.90;42.10
28374;DHT22;15616;40.148;-102.718;2023-06-04T13:42:38;23.90;42.10
28374;DHT22;15616;40.148;-102.718;2023-06-04T13:45:04;23.90;42.10
28374;DHT22;15616;40.148;-102.718;2023-06-04T13:47:29;23.90;42.10
28374;DHT22;15616;40.148;-102.718;2023-06-04T13:49:55;23.90;42.10
28374;DHT22;15616;40.148;-102.718;2023-06-04T13:52:21;23.90;42.00
28374;DHT22;15616;40.148;-102.718;2023-06-04T13:54:47;23.90;42.00
28374;DHT22;15616;40.148;-102.718;2023-06-04T13:57:12;23.90;42.00
28374;DHT22;15616;40.148;-102.718;2023-06-04T13:59:38;23.90;42.00
28374;DHT22;15616;40.148;-102.718;2023-06-04T14:02:04;24.00;42.00
28374;DHT22;15616;40.148;-102.718;2023-06-04T14:04:30;24.00;42.00
28374;DHT22;15616;40.148;-102.718;2023-06-04T14:06:56;24.00;42.00
28374;DHT22;15616;40.148;-102.718;2023-06-04T14:09:21;24.00;42.00
28374;DHT22;15616;40.148;-102.718;2023-06-04T14:11:47;24.00;42.00
28374;DHT22;15616;40.148;-102.718;2023-06-04T14:14:16;24.00;42.00
28374;DHT22;15616;40.148;-102.718;2023-06-04T14:16:44;24.00;42.00
28374;DHT22;15616;40.148;-102.718;2023-06-04T14:19:10;24.00;42.00
28374;DHT22;15616;40.148;-102.718;2023-06-04T14:21:35;24.00;42.00
28374;DHT22;15616;40.148;-102.718;2023-06-04T14:24:02;24.00;41.90
28374;DHT22;15616;40.148;-102.718;2023-06-04T14:26:28;24.00;41.90
28374;DHT22;15616;40.148;-102.718;2023-06-04T14:28:54;24.00;41.90
28374;DHT22;15616;40.148;-102.718;2023-06-04T14:31:20;24.00;42.00
28374;DHT22;15616;40.148;-102.718;2023-06-04T14:33:46;24.00;42.00
28374;DHT22;15616;40.148;-102.718;2023-06-04T14:36:12;24.00;42.00
28374;DHT22;15616;40.148;-102.718;2023-06-04T14:38:37;24.00;42.00
28374;DHT22;15616;40.148;-102.718;2023-06-04T14:41:03;24.00;41.90
28374;DHT22;15616;40.148;-102.718;2023-06-04T14:43:29;24.10;41.80
28374;DHT22;15616;40.148;-102.718;2023-06-04T14:45:55;24.10;41.80
28374;DHT22;15616;40.148;-102.718;2023-06-04T14:48:20;24.10;41.70
28374;DHT22;15616;40.148;-102.718;2023-06-04T14:50:46;24.20;41.70